Flight Track Log - Related Links

Times and Time Zones

All times are in EDT time to prevent confusion due to time zone crossing. See the EJA839 flight status page for this flight to view local times or setup timezone preferences in your user account.

Time Position Orientation Groundspeed Altitude Reporting Facility
EDT Latitude Longitude Course Direction KTS MPH feet Rate Location/Type
Tue 02:41:52 PM 26.6789 -80.0233 336° Northwest 217 250 3,800  Level Miami Center
Tue 02:42:52 PM 26.7317 -79.9967 24° Northeast 221 254 6,700 2,400 Climbing Miami Center
Tue 02:43:52 PM 26.7850 -80.0400 324° Northwest 182 209 8,600 1,850 Climbing Miami Center
Tue 02:44:52 PM 26.8061 -80.1244 286° West 221 254 10,400 2,050 Climbing Miami Center
Tue 02:45:52 PM 26.8331 -80.2253 287° West 300 345 12,700 1,800 Climbing Miami Center
Tue 02:46:52 PM 26.8644 -80.3169 291° West 324 373 14,000 1,650 Climbing Miami Center
Tue 02:47:00 PM 26.9660 -80.3746 336° Northwest  Level FlightAware
Tue 02:47:52 PM 26.9406 -80.3681 329° Northwest 314 361 16,000  Level Miami Center
Tue 02:48:52 PM 27.0169 -80.3983 341° North 308 354 17,800 1,650 Climbing Miami Center
Tue 02:49:52 PM 27.1100 -80.4408 338° Northwest 313 360 19,300 1,500 Climbing Miami Center
Tue 02:50:52 PM 27.1925 -80.4761 339° North 318 366 20,800 1,500 Climbing Miami Center
Tue 02:51:52 PM 27.2814 -80.5139 339° North 323 372 22,300 1,450 Climbing Miami Center
Tue 02:52:52 PM 27.3681 -80.5494 340° North 328 377 23,700 1,450 Climbing Miami Center
Tue 02:53:52 PM 27.4592 -80.5853 341° North 328 377 25,200 1,500 Climbing Miami Center
Tue 02:54:52 PM 27.5458 -80.6231 339° North 328 377 26,700 1,450 Climbing Miami Center
Tue 02:55:52 PM 27.6347 -80.6589 340° North 328 377 28,100 1,250 Climbing Miami Center
Tue 02:56:52 PM 27.7256 -80.6994 338° Northwest 333 383 29,200 1,050 Climbing Miami Center
Tue 02:57:52 PM 27.8183 -80.7378 340° North 343 395 30,200 1,000 Climbing Miami Center
Tue 02:58:52 PM 27.9156 -80.7739 342° North 355 409 31,200 1,000 Climbing Miami Center
Tue 02:59:52 PM 28.0081 -80.8172 338° Northwest 362 417 32,200 1,050 Climbing Miami Center
Tue 03:00:52 PM 28.1072 -80.8581 340° North 367 422 33,300 1,300 Climbing Miami Center
Tue 03:01:52 PM 28.1939 -80.8919 341° North 372 428 34,800 1,500 Climbing Miami Center
Tue 03:02:52 PM 28.2825 -80.9328 338° Northwest 360 414 36,300 1,379 Climbing Miami Center
Tue 03:04:33 PM 28.4344 -80.9994 339° North 334 384 38,500 1,006 Climbing Jacksonville Center
Tue 03:05:33 PM 28.5183 -81.0356 339° North 329 379 39,000 250 Climbing Jacksonville Center
Tue 03:06:33 PM 28.6067 -81.0767 338° Northwest 329 379 39,000  Level Jacksonville Center
Tue 03:07:33 PM 28.6969 -81.1150 340° North 341 392 39,000  Level Jacksonville Center
Tue 03:08:33 PM 28.7975 -81.1417 347° North 354 407 39,000  Level Jacksonville Center
Tue 03:09:33 PM 28.9000 -81.1661 348° North 365 420 39,000  Level Jacksonville Center
Tue 03:10:33 PM 29.0047 -81.1903 349° North 375 432 39,000  Level Jacksonville Center
Tue 03:11:33 PM 29.1053 -81.2147 348° North 374 430 39,000  Level Jacksonville Center
Tue 03:12:33 PM 29.2078 -81.2392 348° North 369 425 39,000  Level Jacksonville Center
Tue 03:13:33 PM 29.3083 -81.2614 349° North 374 430 39,000  Level Jacksonville Center
Tue 03:14:33 PM 29.4131 -81.2858 349° North 374 430 39,000  Level Jacksonville Center
Tue 03:15:33 PM 29.5008 -81.3106 346° North 369 425 39,000  Level Jacksonville Center
Tue 03:16:33 PM 29.6161 -81.3375 349° North 375 432 39,000  Level Jacksonville Center
Tue 03:17:33 PM 29.6978 -81.3575 348° North 375 432 39,000  Level Jacksonville Center
Tue 03:18:33 PM 29.8233 -81.3867 349° North 375 432 39,000  Level Jacksonville Center
Tue 03:19:33 PM 29.9258 -81.4092 349° North 375 432 39,000  Level Jacksonville Center
Tue 03:20:33 PM 30.0264 -81.4364 347° North 375 432 39,000  Level Jacksonville Center
Tue 03:21:33 PM 30.1292 -81.4611 348° North 375 432 39,000  Level Jacksonville Center
Tue 03:22:33 PM 30.2336 -81.4861 348° North 375 432 39,000  Level Jacksonville Center
Tue 03:23:33 PM 30.3361 -81.5039 351° North 375 432 39,000  Level Jacksonville Center
Tue 03:24:33 PM 30.4425 -81.4758 13° North 375 432 39,000  Level Jacksonville Center
Tue 03:25:33 PM 30.5483 -81.4406 16° North 380 437 39,000  Level Jacksonville Center
Tue 03:26:33 PM 30.6567 -81.4025 17° North 391 450 39,000  Level Jacksonville Center
Tue 03:27:33 PM 30.7625 -81.3647 17° North 397 457 39,000  Level Jacksonville Center
Tue 03:28:33 PM 30.8664 -81.3025 27° Northeast 397 457 39,000  Level Jacksonville Center
Tue 03:29:33 PM 30.9658 -81.2428 27° Northeast 402 463 39,000  Level Jacksonville Center
Tue 03:30:33 PM 31.0672 -81.1778 29° Northeast 402 463 39,000  Level Jacksonville Center
Tue 03:31:33 PM 31.1686 -81.1178 27° Northeast 402 463 39,000  Level Jacksonville Center
Tue 03:32:33 PM 31.2700 -81.0550 28° Northeast 407 468 39,000  Level Jacksonville Center
Tue 03:33:33 PM 31.3694 -80.9922 28° Northeast 401 461 39,000  Level Jacksonville Center
Tue 03:34:33 PM 31.4603 -80.9369 27° Northeast 401 461 39,000  Level Jacksonville Center
Tue 03:35:33 PM 31.5719 -80.8686 28° Northeast 400 460 39,000  Level Jacksonville Center
Tue 03:36:33 PM 31.6714 -80.8056 28° Northeast 400 460 39,000  Level Jacksonville Center
Tue 03:37:33 PM 31.7622 -80.7497 28° Northeast 400 460 39,000 -750 Level Jacksonville Center
Tue 03:38:33 PM 31.8697 -80.6861 27° Northeast 400 460 37,500 -1,450 Descending Jacksonville Center
Tue 03:39:33 PM 31.9606 -80.6275 29° Northeast 400 460 36,100 -1,250 Descending Jacksonville Center
Tue 03:40:33 PM 32.0678 -80.5611 28° Northeast 400 460 35,000 -550 Descending Jacksonville Center
Tue 03:41:33 PM 32.1567 -80.5072 27° Northeast 395 455 35,000  Level Jacksonville Center
Tue 03:42:33 PM 32.2536 -80.4433 29° Northeast 395 455 35,000  Level Jacksonville Center
Tue 03:43:33 PM 32.3547 -80.3817 27° Northeast 390 449 35,000  Level Jacksonville Center
Tue 03:44:33 PM 32.4536 -80.3197 28° Northeast 390 449 35,000  Level Jacksonville Center
Tue 03:45:33 PM 32.5544 -80.2531 29° Northeast 396 456 35,000  Level Jacksonville Center
Tue 03:46:33 PM 32.6556 -80.1908 27° Northeast 401 461 35,000  Level Jacksonville Center
Tue 03:47:33 PM 32.7564 -80.1261 28° Northeast 401 461 35,000 -450 Level Jacksonville Center
Tue 03:48:33 PM 32.8550 -80.0636 28° Northeast 401 461 34,100 -1,150 Descending Jacksonville Center
Tue 03:49:33 PM 32.9386 -79.9744 42° Northeast 401 461 32,700 -1,450 Descending Jacksonville Center
Tue 03:50:33 PM 33.0114 -79.8681 51° Northeast 401 461 31,200 -1,450 Descending Jacksonville Center
Tue 03:51:33 PM 33.0819 -79.7664 50° Northeast 401 461 29,800 -1,250 Descending Jacksonville Center
Tue 03:52:33 PM 33.1564 -79.6597 50° Northeast 406 467 28,700 -1,450 Descending Jacksonville Center
Tue 03:53:33 PM 33.2367 -79.5400 51° Northeast 412 474 26,900 -1,650 Descending Jacksonville Center
Tue 03:54:33 PM 33.3069 -79.4381 50° Northeast 412 474 25,400 -1,500 Descending Jacksonville Center
Tue 03:55:33 PM 33.3772 -79.3333 51° Northeast 412 474 23,900 -1,500 Descending Jacksonville Center
Tue 03:56:33 PM 33.4433 -79.2361 51° Northeast 400 460 22,400 -1,500 Descending Jacksonville Center
Tue 03:57:33 PM 33.5075 -79.1439 50° Northeast 372 428 20,900 -1,450 Descending Jacksonville Center
Tue 03:58:33 PM 33.5592 -79.0642 52° Northeast 347 399 19,500 -1,654 Descending Jacksonville Center
Tue 04:00:09 PM 33.6647 -78.9100 51° Northeast 363 418 16,600 -1,885 Descending Washington Center
Tue 04:01:09 PM 33.7258 -78.8175 52° Northeast 363 418 14,600 -2,000 Descending Washington Center
Tue 04:02:09 PM 33.7867 -78.7275 51° Northeast 358 412 12,600 -1,600 Descending Washington Center
Tue 04:03:09 PM 33.8450 -78.6422 51° Northeast 348 400 11,400 -950 Descending Washington Center
Tue 04:04:09 PM 33.9036 -78.5542 51° Northeast 343 395 10,700 -550 Descending Washington Center
Tue 04:05:09 PM 33.9619 -78.4661 51° Northeast 343 395 10,300 -300 Descending Washington Center
Tue 04:06:09 PM 34.0206 -78.3781 51° Northeast 343 395 10,100 -200 Descending Washington Center
Tue 04:07:09 PM 34.0747 -78.2922 53° Northeast 338 389 9,900 -800 Descending Washington Center
Tue 04:08:09 PM 34.1183 -78.2083 58° Northeast 315 362 8,500 -1,700 Descending Washington Center
Tue 04:09:09 PM 34.1639 -78.1194 58° Northeast 300 345 6,500 -2,250 Descending Washington Center
Tue 04:10:09 PM 34.1989 -78.0425 61° Northeast 272 313 4,000 -2,400 Descending Washington Center
Tue 04:11:09 PM 34.2317 -77.9733 60° Northeast 252 290 1,700 -2,300 Descending Washington Center
Tue 04:13:00 PM 34.2706 -77.9026 202° Southwest  Level Estimated
Tue 04:20:00 PM 34.2667 -77.9000 202° Southwest  Level FlightAware
Tue 04:21:00 PM 34.2706 -77.9026 202° Southwest  Level Estimated

Login

Don't have an account? Register now (free) for customized features, flight alerts, and more!